Time;durP1;ratioP1;P1;durP2;ratioP2;P2;SDS_P1;SDS_P2;PMS_P1;PMS_P2;Temp;Humidity;BMP_temperature;BMP_pressure;BME280_temperature;BME280_humidity;BME280_pressure;Samples;Min_cycle;Max_cycle;Signal;HPM_P1;HPM_P2
2022/08/25 13:49:25;;;;;;;3.35;0.82;;;;;;;22.81;42.73;102342.88;5018390;27;1701838;-64
2022/08/25 13:51:54;;;;;;;1.23;0.80;;;;;;;22.80;42.65;102343.88;5051810;28;60788;-63
2022/08/25 13:54:28;;;;;;;4.00;0.60;;;;;;;22.87;43.11;102345.00;5065559;28;20547;-63
2022/08/25 13:57:02;;;;;;;;;;;;;;;22.95;42.56;102345.00;5065815;28;20244;-63
2022/08/25 13:59:37;;;;;;;0.50;0.50;;;;;;;22.87;42.48;102353.22;5099053;28;19913;-62
2022/08/25 14:02:04;;;;;;;2.85;0.40;;;;;;;22.83;43.48;102340.84;5067100;28;20464;-62
2022/08/25 14:04:32;;;;;;;1.75;0.68;;;;;;;22.86;43.26;102336.94;5067694;28;20025;-63
2022/08/25 14:07:13;;;;;;;1.67;0.68;;;;;;;22.86;43.25;102335.06;5066291;28;20036;-63
2022/08/25 14:09:59;;;;;;;0.63;0.43;;;;;;;22.81;42.47;102331.91;5067875;28;20029;-64
2022/08/25 14:12:45;;;;;;;2.20;0.70;;;;;;;22.84;43.76;102344.44;5066425;28;20036;-63
2022/08/25 14:15:28;;;;;;;2.78;0.85;;;;;;;22.89;43.49;102345.69;5066682;28;20548;-62
2022/08/25 14:18:17;;;;;;;2.25;0.60;;;;;;;22.82;43.23;102341.88;5066578;28;20035;-62
2022/08/25 14:20:46;;;;;;;9.43;1.27;;;;;;;22.79;43.66;102328.47;5066331;28;20124;-62
2022/08/25 14:23:20;;;;;;;1.95;0.68;;;;;;;22.80;44.21;102331.03;5066357;28;20097;-63
2022/08/25 14:25:48;;;;;;;0.93;0.70;;;;;;;22.74;43.54;102330.84;5066911;28;20128;-63
2022/08/25 14:28:20;;;;;;;0.95;0.50;;;;;;;22.76;43.75;102326.91;5067720;28;20123;-62
2022/08/25 14:31:03;;;;;;;1.92;0.75;;;;;;;22.76;43.59;102326.06;5067272;28;20149;-62
2022/08/25 14:33:33;;;;;;;1.17;0.40;;;;;;;22.73;43.98;102323.66;5068504;28;20411;-63
2022/08/25 14:36:01;;;;;;;0.93;0.55;;;;;;;22.66;43.38;102322.56;5068139;28;20036;-62
2022/08/25 14:38:27;;;;;;;0.68;0.40;;;;;;;22.67;43.65;102313.31;5067532;28;20476;-62
2022/08/25 14:40:53;;;;;;;1.58;1.33;;;;;;;22.69;43.85;102311.31;5067369;28;20433;-62
2022/08/25 14:43:19;;;;;;;2.33;0.50;;;;;;;22.63;43.55;102298.22;5066397;28;20083;-63
2022/08/25 14:45:47;;;;;;;0.70;0.65;;;;;;;22.60;43.80;102301.31;5066401;28;20132;-63
2022/08/25 14:48:23;;;;;;;1.30;0.68;;;;;;;22.61;44.76;102298.41;5066049;28;20053;-62
2022/08/25 14:50:51;;;;;;;1.35;0.50;;;;;;;22.64;44.45;102291.72;5065067;28;20464;-64
2022/08/25 14:53:17;;;;;;;2.67;0.50;;;;;;;22.65;44.44;102283.34;5064501;28;20123;-63
2022/08/25 14:55:42;;;;;;;2.15;0.90;;;;;;;22.60;44.54;102290.34;5066499;28;20555;-62
2022/08/25 14:58:08;;;;;;;0.32;0.32;;;;;;;22.57;44.28;102290.69;5064851;28;20025;-63
2022/08/25 15:00:42;;;;;;;0.73;0.45;;;;;;;22.56;44.30;102283.50;5052798;28;20025;-61
2022/08/25 15:03:13;;;;;;;1.75;0.70;;;;;;;22.57;45.61;102282.47;5051067;28;20104;-62
2022/08/25 15:05:39;;;;;;;2.47;0.73;;;;;;;22.51;45.71;102286.72;5052825;28;20033;-64
2022/08/25 15:10:49;;;;;;;;;;;;;;;22.56;45.52;102280.75;5053010;28;20071;-62
2022/08/25 15:13:15;;;;;;;1.17;0.85;;;;;;;22.52;46.31;102267.38;5051969;28;19943;-63
2022/08/25 15:15:43;;;;;;;1.20;0.60;;;;;;;22.50;46.16;102274.03;5052732;28;20037;-62
2022/08/25 15:18:09;;;;;;;2.65;0.60;;;;;;;22.50;46.06;102274.03;5051596;28;20124;-62
2022/08/25 15:20:35;;;;;;;0.95;0.73;;;;;;;22.48;46.22;102281.56;5053069;28;20029;-63
2022/08/25 15:23:01;;;;;;;0.50;0.40;;;;;;;22.46;46.29;102270.75;5051065;28;20052;-62
2022/08/25 15:25:27;;;;;;;0.93;0.60;;;;;;;22.47;46.29;102264.25;5052602;28;20068;-62
2022/08/25 15:27:54;;;;;;;1.67;0.75;;;;;;;22.50;45.93;102266.66;5052065;28;20456;-62
2022/08/25 15:30:20;;;;;;;2.00;0.85;;;;;;;22.47;46.26;102261.50;5052612;28;20037;-63
2022/08/25 15:32:46;;;;;;;2.25;0.75;;;;;;;22.46;46.26;102268.00;5052629;28;20074;-63
2022/08/25 15:35:11;;;;;;;2.40;1.17;;;;;;;22.48;46.08;102262.38;5052520;28;20024;-63
2022/08/25 15:37:37;;;;;;;1.85;0.88;;;;;;;22.42;46.20;102255.66;5052491;28;20464;-62
2022/08/25 15:40:04;;;;;;;0.93;0.70;;;;;;;22.42;46.58;102258.41;5052636;28;20115;-62
2022/08/25 15:42:31;;;;;;;3.78;1.02;;;;;;;22.40;46.91;102263.19;5051144;28;20111;-62
2022/08/25 15:44:57;;;;;;;2.47;1.02;;;;;;;22.42;47.40;102252.94;5050971;28;20472;-64
2022/08/25 15:47:26;;;;;;;6.43;0.63;;;;;;;22.46;47.52;102248.84;5052261;28;20032;-63
2022/08/25 15:50:02;;;;;;;1.17;0.55;;;;;;;22.40;47.65;102252.25;5052915;28;20084;-63
2022/08/25 15:52:27;;;;;;;6.38;0.95;;;;;;;22.34;48.21;102243.81;5052429;28;20055;-63
2022/08/25 15:54:53;;;;;;;2.10;0.70;;;;;;;22.31;50.45;102252.34;5052774;28;20337;-63
2022/08/25 15:57:18;;;;;;;2.47;0.60;;;;;;;22.18;50.26;102244.59;5052232;28;20094;-62
2022/08/25 15:59:44;;;;;;;1.95;0.70;;;;;;;22.20;51.49;102246.16;5052223;28;20127;-62
2022/08/25 16:02:10;;;;;;;2.60;0.70;;;;;;;22.11;50.67;102257.22;5051185;28;20412;-62
2022/08/25 16:04:36;;;;;;;2.55;0.82;;;;;;;22.04;51.74;102251.50;5052020;28;20033;-63
2022/08/25 16:07:03;;;;;;;2.10;0.82;;;;;;;22.03;51.51;102240.72;5051474;28;20063;-62
2022/08/25 16:09:30;;;;;;;2.25;0.70;;;;;;;21.99;53.75;102253.84;5050726;28;20036;-62
2022/08/25 16:11:55;;;;;;;5.70;1.35;;;;;;;21.92;52.13;102253.66;5052034;28;20082;-62
2022/08/25 16:14:21;;;;;;;1.40;0.50;;;;;;;21.86;51.44;102259.78;5051369;28;20032;-62
2022/08/25 16:16:47;;;;;;;1.42;0.70;;;;;;;21.84;51.23;102256.34;5051714;28;20048;-62
2022/08/25 16:19:13;;;;;;;3.17;1.02;;;;;;;21.81;51.63;102245.69;5050856;28;20051;-61
2022/08/25 16:21:40;;;;;;;1.75;0.88;;;;;;;21.81;51.04;102255.78;5051715;28;20025;-62
2022/08/25 16:24:07;;;;;;;2.20;1.13;;;;;;;21.77;50.20;102244.31;5051603;28;20025;-63
2022/08/25 16:26:35;;;;;;;3.90;1.33;;;;;;;21.74;49.85;102241.03;5052639;28;20033;-62
2022/08/25 16:29:02;;;;;;;2.97;0.68;;;;;;;21.66;49.71;102239.09;5051779;28;20116;-63
2022/08/25 16:31:27;;;;;;;2.03;0.77;;;;;;;21.66;49.27;102236.34;5052218;28;20052;-63
2022/08/25 16:34:00;;;;;;;3.30;0.80;;;;;;;21.58;49.72;102233.56;5051022;28;20040;-63
2022/08/25 16:36:31;;;;;;;1.35;1.00;;;;;;;21.56;48.85;102241.06;5050116;28;20028;-62
2022/08/25 16:39:02;;;;;;;1.90;1.08;;;;;;;21.51;48.31;102240.72;5051808;28;20036;-63
2022/08/25 16:41:37;;;;;;;1.52;1.00;;;;;;;21.47;48.14;102258.44;5050180;28;20029;-62
2022/08/25 16:44:08;;;;;;;3.90;1.30;;;;;;;21.41;48.09;102237.19;5050357;28;20423;-62
2022/08/25 16:46:35;;;;;;;3.42;1.17;;;;;;;21.34;48.36;102241.59;5050499;28;20393;-61
2022/08/25 16:49:05;;;;;;;3.15;0.80;;;;;;;21.32;46.51;102245.31;5051708;28;20388;-63
2022/08/25 16:51:31;;;;;;;1.20;0.90;;;;;;;21.27;46.04;102235.88;5051962;28;20102;-64
2022/08/25 16:56:42;;;;;;;2.20;0.88;;;;;;;21.16;45.35;102236.91;5051758;28;20035;-63
2022/08/25 16:59:10;;;;;;;1.77;0.88;;;;;;;21.16;45.78;102247.84;5051534;28;20040;-62
2022/08/25 17:01:36;;;;;;;3.65;1.10;;;;;;;21.11;46.46;102242.00;5050156;28;20033;-62
2022/08/25 17:04:03;;;;;;;2.80;1.10;;;;;;;21.05;46.69;102237.19;5051705;28;20044;-62
2022/08/25 17:06:32;;;;;;;2.92;1.10;;;;;;;21.00;46.25;102234.06;5049591;28;20086;-62
2022/08/25 17:08:58;;;;;;;1.63;0.70;;;;;;;21.01;45.82;102238.50;5051571;28;20369;-62
2022/08/25 17:11:35;;;;;;;2.92;1.00;;;;;;;20.94;45.86;102245.59;5052083;28;20029;-62
2022/08/25 17:14:03;;;;;;;3.08;1.38;;;;;;;20.92;45.42;102247.63;5051747;28;20032;-63
2022/08/25 17:16:31;;;;;;;2.28;0.68;;;;;;;20.88;45.47;102247.09;5050468;28;20564;-62
2022/08/25 17:18:59;;;;;;;2.45;1.10;;;;;;;20.83;45.54;102248.56;5050990;28;20481;-61
2022/08/25 17:21:26;;;;;;;3.13;1.25;;;;;;;20.78;44.72;102250.88;5051405;28;20031;-62
2022/08/25 17:23:54;;;;;;;4.88;1.85;;;;;;;20.73;44.49;102249.47;5049802;28;20032;-64
2022/08/25 17:26:20;;;;;;;4.22;1.88;;;;;;;20.69;44.56;102248.06;5051588;28;20059;-63
2022/08/25 17:28:46;;;;;;;3.17;1.40;;;;;;;20.62;44.42;102246.94;5050073;28;20033;-63
2022/08/25 17:31:18;;;;;;;3.10;1.50;;;;;;;20.60;45.07;102248.13;5050478;28;20095;-63
2022/08/25 17:33:44;;;;;;;3.97;1.80;;;;;;;20.50;45.10;102242.72;5051625;28;20032;-63
2022/08/25 17:36:11;;;;;;;4.80;1.48;;;;;;;20.43;45.04;102250.66;5051798;28;20029;-61
2022/08/25 17:38:38;;;;;;;4.05;1.35;;;;;;;20.36;44.79;102251.38;5051266;28;20040;-62
2022/08/25 17:41:06;;;;;;;2.15;1.13;;;;;;;20.33;44.59;102247.09;5051013;28;20051;-62
2022/08/25 17:43:40;;;;;;;3.78;1.70;;;;;;;20.26;45.28;102251.41;5051509;28;20519;-62
2022/08/25 17:46:07;;;;;;;1.92;1.15;;;;;;;20.20;44.98;102251.16;5051429;28;20091;-62
2022/08/25 17:48:35;;;;;;;2.72;1.80;;;;;;;20.12;45.13;102255.47;5051259;28;20082;-61
2022/08/25 17:51:01;;;;;;;1.95;1.23;;;;;;;20.10;46.17;102257.50;5051412;28;20342;-63
2022/08/25 17:53:28;;;;;;;2.45;1.42;;;;;;;20.06;45.75;102256.09;5050283;28;20347;-62
2022/08/25 17:56:00;;;;;;;5.32;1.80;;;;;;;20.04;44.72;102252.66;5051734;28;20057;-62
2022/08/25 17:58:27;;;;;;;3.72;1.50;;;;;;;19.98;45.94;102258.69;5049846;28;20037;-62
2022/08/25 18:00:53;;;;;;;2.25;1.08;;;;;;;19.93;45.47;102261.00;5051437;28;20104;-63
2022/08/25 18:03:19;;;;;;;2.65;1.00;;;;;;;19.87;46.93;102260.75;5051537;28;20037;-64
2022/08/25 18:05:44;;;;;;;2.80;1.00;;;;;;;19.66;47.19;102269.13;5051450;28;20025;-62
2022/08/25 18:08:11;;;;;;;3.00;1.10;;;;;;;19.62;47.81;102267.66;5051254;28;20075;-62
2022/08/25 18:10:38;;;;;;;3.92;0.82;;;;;;;19.51;48.53;102266.81;5050218;28;20396;-62
2022/08/25 18:13:03;;;;;;;3.20;1.00;;;;;;;19.40;48.60;102269.66;5051463;28;20037;-63
2022/08/25 18:15:29;;;;;;;1.83;1.00;;;;;;;19.36;48.69;102273.69;5049998;28;20082;-61
2022/08/25 18:17:55;;;;;;;1.90;0.70;;;;;;;19.35;49.21;102271.97;5050791;28;20061;-63
2022/08/25 18:20:22;;;;;;;1.02;0.60;;;;;;;19.26;49.51;102263.78;5050981;28;20033;-62
2022/08/25 18:22:48;;;;;;;3.33;1.27;;;;;;;19.22;50.19;102265.94;5051184;28;20029;-63
2022/08/25 18:25:15;;;;;;;2.40;1.20;;;;;;;19.18;49.99;102259.06;5051495;28;20370;-63
2022/08/25 18:27:41;;;;;;;1.80;1.30;;;;;;;19.18;49.19;102272.69;5049839;28;20041;-62
2022/08/25 18:30:07;;;;;;;1.95;0.80;;;;;;;19.13;48.40;102261.34;5049665;28;20076;-62
2022/08/25 18:32:34;;;;;;;1.70;0.73;;;;;;;19.07;48.92;102253.72;5051280;28;20029;-62
2022/08/25 18:35:00;;;;;;;1.23;0.60;;;;;;;19.08;49.79;102264.50;5052458;28;20108;-62
2022/08/25 18:40:24;;;;;;;1.75;0.98;;;;;;;18.96;51.62;102264.75;5055023;28;20039;-62
2022/08/25 18:42:52;;;;;;;2.22;1.15;;;;;;;18.87;52.49;102261.88;5053468;28;20454;-61
2022/08/25 18:45:20;;;;;;;5.93;1.05;;;;;;;18.86;53.19;102260.16;5054278;28;20465;-61
2022/08/25 18:47:46;;;;;;;2.38;1.30;;;;;;;18.82;54.08;102257.88;5052808;28;20043;-63
2022/08/25 18:50:12;;;;;;;2.15;1.15;;;;;;;18.78;54.10;102272.75;5054994;28;20037;-61
2022/08/25 18:52:37;;;;;;;2.60;1.40;;;;;;;18.74;54.42;102274.91;5054238;28;20102;-62
2022/08/25 18:55:04;;;;;;;5.07;1.10;;;;;;;18.66;54.96;102274.75;5052485;28;20039;-63
2022/08/25 18:57:29;;;;;;;2.28;1.35;;;;;;;18.61;55.39;102261.50;5052646;28;20040;-62
2022/08/25 18:59:55;;;;;;;3.83;1.02;;;;;;;18.61;55.61;102260.63;5053503;28;20037;-62
2022/08/25 19:02:21;;;;;;;1.98;1.10;;;;;;;18.59;56.00;102258.06;5053835;28;20039;-62
2022/08/25 19:04:50;;;;;;;1.27;0.93;;;;;;;18.55;56.35;102269.38;5053952;28;20159;-63
2022/08/25 19:07:17;;;;;;;4.90;0.90;;;;;;;18.52;56.00;102270.50;5052204;28;20037;-63
2022/08/25 19:09:42;;;;;;;3.38;1.38;;;;;;;18.50;56.50;102263.47;5054169;28;20029;-62
2022/08/25 19:12:08;;;;;;;3.47;1.33;;;;;;;18.48;57.01;102270.94;5053644;28;20071;-62
2022/08/25 19:14:34;;;;;;;2.90;0.95;;;;;;;18.45;57.05;102263.03;5052678;28;20055;-62
2022/08/25 19:16:59;;;;;;;2.42;1.30;;;;;;;18.38;57.59;102261.84;5053764;28;20388;-62
2022/08/25 19:19:25;;;;;;;2.65;1.38;;;;;;;18.39;58.30;102260.84;5053916;28;20564;-62
2022/08/25 19:21:51;;;;;;;3.85;1.38;;;;;;;18.32;58.51;102260.56;5052727;28;20547;-62
2022/08/25 19:24:18;;;;;;;1.83;1.30;;;;;;;18.26;59.25;102267.38;5052085;28;20120;-63
2022/08/25 19:26:44;;;;;;;3.50;1.30;;;;;;;18.23;60.04;102261.34;5053618;28;20477;-61
2022/08/25 19:29:13;;;;;;;2.00;1.15;;;;;;;18.20;60.56;102262.50;5052304;28;20094;-63
2022/08/25 19:31:41;;;;;;;6.80;1.42;;;;;;;18.15;61.18;102261.19;5054186;28;20037;-64
2022/08/25 19:34:11;;;;;;;3.78;1.30;;;;;;;18.05;61.90;102263.84;5053890;28;20063;-63
2022/08/25 19:36:37;;;;;;;3.08;1.35;;;;;;;18.01;62.42;102273.28;5053196;28;20060;-62
2022/08/25 19:39:05;;;;;;;2.45;1.20;;;;;;;17.97;62.85;102261.81;5053295;28;20040;-63
2022/08/25 19:41:32;;;;;;;1.55;1.10;;;;;;;17.95;63.67;102255.63;5053522;28;20195;-63
2022/08/25 19:43:58;;;;;;;4.82;1.60;;;;;;;17.96;64.62;102259.22;5053436;28;20491;-63
2022/08/25 19:46:33;;;;;;;3.13;1.42;;;;;;;17.93;64.33;102259.47;5053081;28;20025;-62
2022/08/25 19:48:59;;;;;;;3.25;1.63;;;;;;;17.90;64.82;102270.63;5053012;28;20132;-61
2022/08/25 19:51:25;;;;;;;2.15;1.65;;;;;;;17.81;65.47;102260.56;5053681;28;20401;-64
2022/08/25 19:53:51;;;;;;;3.22;1.40;;;;;;;17.79;66.23;102257.09;5053258;28;20033;-62
2022/08/25 19:56:16;;;;;;;4.28;1.42;;;;;;;17.79;66.37;102262.53;5053920;28;20127;-63
2022/08/25 19:58:42;;;;;;;4.20;1.95;;;;;;;17.76;66.88;102252.78;5053420;28;20072;-63
2022/08/25 20:01:07;;;;;;;2.70;1.70;;;;;;;17.73;67.33;102245.75;5051986;28;20033;-63
2022/08/25 20:03:33;;;;;;;2.13;1.25;;;;;;;17.64;68.26;102248.41;5051689;28;20033;-63
2022/08/25 20:05:59;;;;;;;4.35;2.22;;;;;;;17.56;68.80;102238.19;5053255;28;20032;-65
2022/08/25 20:08:24;;;;;;;2.42;1.52;;;;;;;17.48;68.88;102240.72;5053170;28;20044;-62
2022/08/25 20:10:51;;;;;;;2.97;2.22;;;;;;;17.48;69.69;102248.00;5053109;28;20116;-62
2022/08/25 20:13:17;;;;;;;2.47;1.48;;;;;;;17.25;69.96;102248.09;5052944;28;20091;-62
2022/08/25 20:15:43;;;;;;;4.82;1.40;;;;;;;17.16;70.30;102250.75;5052931;28;20033;-64
2022/08/25 20:18:09;;;;;;;2.60;1.60;;;;;;;17.01;70.48;102252.91;5051568;28;20029;-64
2022/08/25 20:20:35;;;;;;;4.15;1.75;;;;;;;16.94;71.10;102238.09;5053024;28;20090;-62
2022/08/25 20:25:45;;;;;;;4.68;1.83;;;;;;;16.87;72.64;102245.91;5053032;28;20040;-63
2022/08/25 20:28:11;;;;;;;5.78;1.80;;;;;;;16.82;72.93;102243.56;5052987;28;20037;-64
2022/08/25 20:30:36;;;;;;;5.03;1.88;;;;;;;16.87;73.18;102243.19;5053104;28;20033;-64
2022/08/25 20:33:03;;;;;;;3.10;1.70;;;;;;;16.84;73.65;102228.00;5051443;28;20112;-62
2022/08/25 20:35:29;;;;;;;3.05;1.40;;;;;;;16.73;74.07;102230.75;5051615;28;20053;-62
2022/08/25 20:37:56;;;;;;;2.47;1.50;;;;;;;16.62;74.28;102233.44;5051407;28;20040;-62
2022/08/25 20:40:26;;;;;;;3.00;1.48;;;;;;;16.68;74.48;102232.13;5052101;28;20404;-64
2022/08/25 20:42:53;;;;;;;3.17;1.55;;;;;;;16.66;75.04;102236.78;5052101;28;20389;-63
2022/08/25 20:45:23;;;;;;;3.50;1.90;;;;;;;16.59;75.12;102240.97;5052512;28;20048;-63
2022/08/25 20:47:49;;;;;;;3.13;1.58;;;;;;;16.52;75.22;102246.94;5052469;28;20033;-62
2022/08/25 20:50:15;;;;;;;3.35;1.42;;;;;;;16.52;76.16;102243.34;5052610;28;20033;-63
2022/08/25 20:52:41;;;;;;;2.90;1.52;;;;;;;16.53;76.08;102240.50;5052838;28;20040;-64
2022/08/25 20:55:08;;;;;;;3.28;1.65;;;;;;;16.42;76.35;102237.78;5052118;28;20036;-63
2022/08/25 20:57:34;;;;;;;5.07;1.70;;;;;;;16.34;77.44;102240.28;5050619;28;20091;-64
2022/08/25 21:00:00;;;;;;;3.70;2.05;;;;;;;16.24;77.63;102244.72;5052587;28;20028;-62
2022/08/25 21:02:26;;;;;;;4.30;1.90;;;;;;;16.15;78.04;102240.06;5052139;28;20037;-63
2022/08/25 21:04:53;;;;;;;5.55;1.95;;;;;;;16.13;79.00;102236.59;5050911;28;20036;-63
2022/08/25 21:07:19;;;;;;;7.35;2.28;;;;;;;16.17;78.63;102235.34;5052007;28;20169;-64
2022/08/25 21:09:45;;;;;;;5.10;2.15;;;;;;;16.40;78.72;102233.47;5050938;28;20041;-62
2022/08/25 21:12:11;;;;;;;5.25;1.60;;;;;;;16.35;78.92;102230.28;5052742;28;20476;-62
2022/08/25 21:14:40;;;;;;;5.93;1.80;;;;;;;16.16;79.24;102241.78;5050738;28;20128;-63
2022/08/25 21:17:06;;;;;;;5.03;2.10;;;;;;;16.03;79.30;102249.16;5050632;28;20033;-62
2022/08/25 21:19:31;;;;;;;6.57;1.83;;;;;;;15.99;79.70;102244.97;5052092;28;20061;-63
2022/08/25 21:21:58;;;;;;;2.85;2.00;;;;;;;15.98;80.19;102249.53;5050622;28;20033;-63
2022/08/25 21:26:56;;;;;;;2.65;1.70;;;;;;;15.92;80.84;102245.44;4971649;28;20055;-62
2022/08/25 21:29:24;;;;;;;4.13;2.03;;;;;;;15.91;81.12;102249.13;4973335;28;20042;-62
2022/08/25 21:31:50;;;;;;;6.50;2.50;;;;;;;15.87;81.21;102253.09;4972985;28;20031;-62
2022/08/25 21:34:17;;;;;;;7.97;2.10;;;;;;;15.81;81.56;102242.72;4973134;28;20026;-62
2022/08/25 21:36:43;;;;;;;6.75;1.95;;;;;;;15.87;81.69;102242.25;4972819;28;20118;-62
2022/08/25 21:39:10;;;;;;;4.50;2.15;;;;;;;15.81;81.76;102231.88;4955700;28;20137;-62
2022/08/25 21:41:39;;;;;;;3.15;1.85;;;;;;;15.80;82.09;102243.72;4973009;28;20467;-62
2022/08/25 21:44:06;;;;;;;2.45;1.67;;;;;;;15.78;81.98;102229.38;4955409;28;20041;-62
2022/08/25 21:46:33;;;;;;;8.88;2.55;;;;;;;15.82;81.92;102233.63;4955097;28;20130;-62
2022/08/25 21:49:00;;;;;;;4.50;2.33;;;;;;;15.77;81.98;102235.81;4972600;28;20049;-61
2022/08/25 21:51:33;;;;;;;2.65;1.80;;;;;;;15.63;82.41;102234.19;4955456;28;20089;-63
2022/08/25 21:54:07;;;;;;;3.60;1.40;;;;;;;15.85;82.20;102227.94;4973339;28;20183;-62
2022/08/25 21:56:43;;;;;;;2.53;1.65;;;;;;;15.84;81.85;102231.63;4973308;28;20066;-62
2022/08/25 21:59:12;;;;;;;4.65;1.70;;;;;;;15.99;81.86;102226.84;4972762;28;20441;-62
2022/08/25 22:01:38;;;;;;;3.25;2.05;;;;;;;16.13;81.99;102229.31;4972742;28;20129;-62
2022/08/25 22:04:05;;;;;;;3.38;1.70;;;;;;;15.92;82.26;102234.59;4955621;28;20086;-62
2022/08/25 22:06:32;;;;;;;6.60;2.00;;;;;;;15.85;82.38;102233.38;4972853;28;20402;-62
2022/08/25 22:08:58;;;;;;;3.10;1.80;;;;;;;15.74;82.46;102230.63;4955224;28;20078;-62
2022/08/25 22:11:24;;;;;;;2.97;1.75;;;;;;;15.67;83.05;102229.41;4976710;28;20394;-63
2022/08/25 22:13:51;;;;;;;4.60;1.75;;;;;;;15.62;83.23;102231.63;4976318;28;20022;-63
2022/08/25 22:16:18;;;;;;;9.25;2.95;;;;;;;15.69;83.45;102232.84;4976618;28;20035;-63
2022/08/25 22:18:46;;;;;;;3.70;2.08;;;;;;;15.86;82.74;102229.66;4976689;28;20031;-62
2022/08/25 22:21:13;;;;;;;4.88;2.40;;;;;;;16.18;82.75;102218.09;4976403;28;20074;-63
2022/08/25 22:23:39;;;;;;;6.13;3.15;;;;;;;15.83;82.75;102221.78;4976468;28;20038;-62
2022/08/25 22:26:04;;;;;;;6.35;2.58;;;;;;;15.65;83.16;102228.66;4959107;28;20064;-62
2022/08/25 22:28:30;;;;;;;4.43;1.80;;;;;;;15.67;83.03;102223.09;4958713;28;20034;-63
2022/08/25 22:30:59;;;;;;;5.30;2.30;;;;;;;15.64;83.29;102221.50;4959183;28;20027;-62
2022/08/25 22:33:25;;;;;;;5.80;2.58;;;;;;;15.59;83.59;102229.97;4958992;28;20129;-63
2022/08/25 22:35:51;;;;;;;8.55;2.35;;;;;;;15.51;83.16;102223.41;4976702;28;20031;-62
2022/08/25 22:38:17;;;;;;;6.63;2.08;;;;;;;15.55;83.71;102224.88;4976205;28;20161;-63
2022/08/25 22:40:42;;;;;;;7.03;2.40;;;;;;;15.52;84.02;102220.56;4975924;28;20035;-62
2022/08/25 22:43:08;;;;;;;6.45;2.30;;;;;;;15.46;84.22;102220.19;4975757;28;20042;-62
2022/08/25 22:45:34;;;;;;;4.43;2.33;;;;;;;15.38;84.21;102218.06;4958917;28;20509;-62
2022/08/25 22:48:01;;;;;;;4.43;2.08;;;;;;;15.32;84.45;102208.56;4976663;28;20035;-62
2022/08/25 22:50:27;;;;;;;5.72;1.98;;;;;;;15.33;84.83;102206.72;4975644;28;20109;-64
2022/08/25 22:52:53;;;;;;;4.88;2.30;;;;;;;15.31;84.95;102211.41;4975919;28;20030;-62
2022/08/25 22:55:19;;;;;;;5.50;2.25;;;;;;;15.32;84.64;102205.88;4975517;28;20053;-62
2022/08/25 22:57:45;;;;;;;4.03;2.10;;;;;;;15.54;85.89;102205.06;4958234;28;20058;-62
2022/08/25 23:00:12;;;;;;;3.80;2.47;;;;;;;15.56;85.05;102197.66;4958306;28;20502;-62
2022/08/25 23:02:40;;;;;;;4.60;2.60;;;;;;;15.45;85.34;102202.19;4958084;28;20574;-62
2022/08/25 23:05:07;;;;;;;3.85;2.47;;;;;;;15.47;85.28;102197.53;4957546;28;20038;-62
2022/08/25 23:07:35;;;;;;;4.50;2.70;;;;;;;15.36;85.15;102201.06;4958209;28;20043;-62
2022/08/25 23:10:02;;;;;;;3.53;2.55;;;;;;;15.64;85.93;102197.09;4975995;28;20034;-62
2022/08/25 23:12:28;;;;;;;2.25;2.00;;;;;;;15.79;85.85;102200.41;4975886;28;20436;-62
2022/08/25 23:14:55;;;;;;;5.72;2.13;;;;;;;15.82;85.57;102201.06;4976395;28;20110;-62
2022/08/25 23:17:21;;;;;;;3.20;2.10;;;;;;;15.80;86.02;102197.63;4958275;28;20093;-63
2022/08/25 23:19:46;;;;;;;5.78;2.30;;;;;;;15.87;85.73;102200.69;4975670;28;20035;-63
2022/08/25 23:22:12;;;;;;;10.70;3.28;;;;;;;15.68;86.07;102204.00;4958155;28;20031;-63
2022/08/25 23:24:41;;;;;;;7.00;2.60;;;;;;;15.56;85.83;102194.94;4975769;28;20066;-62
2022/08/25 23:27:09;;;;;;;6.80;2.38;;;;;;;15.51;85.97;102202.59;4975286;28;20054;-62
2022/08/25 23:29:39;;;;;;;6.78;2.72;;;;;;;15.42;86.04;102192.44;4975384;28;20040;-63
2022/08/25 23:32:07;;;;;;;5.55;2.75;;;;;;;15.36;86.14;102192.94;4975574;28;20035;-62
2022/08/25 23:34:35;;;;;;;8.07;2.50;;;;;;;15.24;86.49;102193.88;4975309;28;20092;-62
2022/08/25 23:37:01;;;;;;;10.85;2.65;;;;;;;15.24;86.64;102192.03;4975225;28;20542;-62
2022/08/25 23:39:27;;;;;;;4.85;2.80;;;;;;;15.56;87.20;102191.38;4957667;28;20030;-63
2022/08/25 23:41:53;;;;;;;2.90;2.10;;;;;;;15.68;86.88;102204.00;4975442;28;20031;-62
2022/08/25 23:44:20;;;;;;;2.35;1.85;;;;;;;15.65;87.06;102187.97;4958058;28;20114;-62
2022/08/25 23:46:48;;;;;;;7.22;2.72;;;;;;;15.65;87.20;102182.56;4957880;28;20499;-64
2022/08/25 23:49:16;;;;;;;3.85;2.58;;;;;;;15.71;86.72;102192.06;4974977;28;20462;-63
2022/08/25 23:51:41;;;;;;;5.53;2.15;;;;;;;15.75;87.31;102194.38;4975253;28;20059;-62
2022/08/25 23:54:09;;;;;;;3.58;2.35;;;;;;;15.77;87.31;102180.72;4957747;28;20065;-62
2022/08/25 23:56:35;;;;;;;2.88;2.25;;;;;;;15.83;87.07;102181.09;4957861;28;20042;-62
2022/08/25 23:59:03;;;;;;;4.72;2.20;;;;;;;15.90;86.82;102186.88;4957282;28;20085;-63
